Time,TemperatureF,DewpointF,PressureIn,WindDirection,WindDirectionDegrees,WindSpeedMPH,WindSpeedGustMPH,Humidity,HourlyPrecipIn,Conditions,Clouds,dailyrainin,SoftwareType,DateUTC
2013-11-07 00:00:00,31.1,25.7,30.04,NW,318,7.5,36.7,80,0.00,,,0.00,VWS V14.01,2013-11-07 05:00:00,
2013-11-07 00:01:00,57.0,46.2,29.97,North,349,11.7,22.0,67,0.00,,,0.00,VWS V14.01,2013-11-07 05:01:00,
2013-11-07 00:02:00,57.0,46.1,29.97,NNE,13,4.1,22.0,67,0.00,,,0.00,VWS V14.01,2013-11-07 05:02:00,
2013-11-07 00:03:00,57.0,46.1,29.97,NNW,339,5.6,22.0,67,0.00,,,0.00,VWS V14.01,2013-11-07 05:03:00,
2013-11-07 00:04:00,57.1,46.2,29.97,NNW,335,5.6,22.0,67,0.00,,,0.00,VWS V14.01,2013-11-07 05:04:00,
2013-11-07 00:05:00,31.0,25.7,30.04,South,181,6.3,37.3,80,0.00,,,0.00,VWS V14.01,2013-11-07 05:05:00,
2013-11-07 00:06:00,30.9,25.6,30.04,WNW,295,11.0,37.3,80,0.00,,,0.00,VWS V14.01,2013-11-07 05:06:00,
2013-11-07 00:07:00,31.1,25.8,30.04,NNW,342,18.5,37.3,80,0.00,,,0.00,VWS V14.01,2013-11-07 05:07:00,
2013-11-07 00:08:00,31.1,25.8,30.04,North,0,12.9,37.3,81,0.00,,,0.00,VWS V14.01,2013-11-07 05:08:00,
2013-11-07 00:09:00,57.1,46.1,29.97,NNW,338,11.2,22.0,67,0.00,,,0.00,VWS V14.01,2013-11-07 05:09:00,
2013-11-07 00:10:00,31.0,25.7,30.04,East,100,9.9,37.3,80,0.00,,,0.00,VWS V14.01,2013-11-07 05:10:00,
2013-11-07 00:14:00,57.3,46.2,29.97,North,356,11.9,22.0,66,0.00,,,0.00,VWS V14.01,2013-11-07 05:14:00,
2013-11-07 00:19:00,57.4,46.3,29.97,NNE,13,6.9,25.4,66,0.00,,,0.00,VWS V14.01,2013-11-07 05:19:00,
2013-11-07 00:24:00,57.4,46.2,29.96,NNW,336,13.0,25.4,66,0.00,,,0.00,VWS V14.01,2013-11-07 05:24:00,
2013-11-07 00:29:00,57.4,46.1,29.96,West,267,7.3,25.4,66,0.00,,,0.00,VWS V14.01,2013-11-07 05:29:00,
2013-11-07 00:34:00,57.5,46.2,29.96,NW,312,9.9,25.4,66,0.00,,,0.00,VWS V14.01,2013-11-07 05:34:00,
2013-11-07 00:39:00,57.5,46.2,29.96,NW,322,9.1,25.4,66,0.00,,,0.00,VWS V14.01,2013-11-07 05:39:00,
2013-11-07 00:44:00,57.4,46.2,29.96,NNE,17,12.1,25.4,66,0.00,,,0.00,VWS V14.01,2013-11-07 05:44:00,
2013-11-07 00:49:00,57.4,46.4,29.95,ENE,60,14.7,20.7,67,0.00,,,0.00,VWS V14.01,2013-11-07 05:49:00,
2013-11-07 00:54:00,57.2,46.4,29.95,NW,326,9.3,25.2,67,0.00,,,0.00,VWS V14.01,2013-11-07 05:54:00,
2013-11-07 00:59:00,57.2,46.5,29.95,WNW,292,7.3,26.8,67,0.00,,,0.00,VWS V14.01,2013-11-07 05:59:00,
2013-11-07 01:04:00,57.1,46.5,29.95,North,6,9.9,26.8,68,0.00,,,0.00,VWS V14.01,2013-11-07 06:04:00,
2013-11-07 01:09:00,57.1,46.5,29.95,ENE,70,17.3,26.8,68,0.00,,,0.00,VWS V14.01,2013-11-07 06:09:00,
2013-11-07 01:14:00,57.0,46.6,29.95,NNW,340,11.2,26.8,68,0.00,,,0.00,VWS V14.01,2013-11-07 06:14:00,
2013-11-07 01:19:00,56.8,47.2,29.95,WNW,301,11.2,27.0,70,0.00,,,0.00,VWS V14.01,2013-11-07 06:19:00,
2013-11-07 01:25:00,56.3,48.0,29.95,NNW,335,16.0,27.0,74,0.00,,,0.00,VWS V14.01,2013-11-07 06:25:00,
2013-11-07 01:30:00,55.8,48.4,29.95,NNW,336,9.5,27.0,76,0.00,,,0.00,VWS V14.01,2013-11-07 06:30:00,
2013-11-07 01:35:00,55.2,48.6,29.94,West,267,11.4,27.0,78,0.00,,,0.00,VWS V14.01,2013-11-07 06:35:00,
2013-11-07 01:40:00,54.8,48.6,29.94,NW,325,3.0,27.0,79,0.00,,,0.00,VWS V14.01,2013-11-07 06:40:00,
2013-11-07 01:45:00,54.4,48.5,29.94,NW,325,4.1,27.0,80,0.00,,,0.00,VWS V14.01,2013-11-07 06:45:00,
2013-11-07 01:50:00,54.2,48.7,29.94,SW,219,7.3,19.0,82,0.00,,,0.00,VWS V14.01,2013-11-07 06:50:00,
2013-11-07 01:55:00,54.0,49.0,29.92,WNW,285,15.1,22.4,83,0.00,,,0.00,VWS V14.01,2013-11-07 06:55:00,
2013-11-07 02:00:00,53.7,49.2,29.94,NE,49,4.1,27.0,85,0.00,,,0.00,VWS V14.01,2013-11-07 07:00:00,
2013-11-07 02:05:00,53.4,49.4,29.93,North,4,12.9,27.0,86,0.00,,,0.00,VWS V14.01,2013-11-07 07:05:00,
2013-11-07 02:10:00,53.2,49.4,29.92,NNE,17,3.2,27.0,87,0.00,,,0.00,VWS V14.01,2013-11-07 07:10:00,
2013-11-07 02:15:00,53.0,49.6,29.92,NNW,346,13.2,27.0,88,0.00,,,0.00,VWS V14.01,2013-11-07 07:15:00,
2013-11-07 02:20:00,52.8,49.8,29.92,North,352,14.9,27.0,89,0.00,,,0.00,VWS V14.01,2013-11-07 07:20:00,
2013-11-07 02:25:00,52.7,49.7,29.90,NNW,332,4.1,27.0,90,0.00,,,0.00,VWS V14.01,2013-11-07 07:25:00,
2013-11-07 02:30:00,52.6,49.8,29.92,NNE,15,5.8,27.0,90,0.00,,,0.00,VWS V14.01,2013-11-07 07:30:00,
2013-11-07 02:35:00,52.4,49.8,29.92,North,356,7.3,27.0,91,0.00,,,0.00,VWS V14.01,2013-11-07 07:35:00,
2013-11-07 02:40:00,52.3,49.9,29.89,WNW,301,2.2,27.0,92,0.00,,,0.00,VWS V14.01,2013-11-07 07:40:00,
2013-11-07 02:45:00,52.1,49.7,29.92,NNW,333,3.4,27.0,92,0.00,,,0.00,VWS V14.01,2013-11-07 07:45:00,
2013-11-07 02:50:00,52.1,50.0,29.92,SE,135,3.2,13.2,92,0.00,,,0.00,VWS V14.01,2013-11-07 07:50:00,
2013-11-07 02:55:00,52.0,50.1,29.91,North,349,6.0,24.8,93,0.00,,,0.00,VWS V14.01,2013-11-07 07:55:00,
2013-11-07 03:00:00,51.9,50.2,29.91,NE,55,8.8,24.8,94,0.00,,,0.00,VWS V14.01,2013-11-07 08:00:00,
2013-11-07 03:05:00,51.8,50.1,29.91,North,359,9.7,24.8,94,0.00,,,0.00,VWS V14.01,2013-11-07 08:05:00,
2013-11-07 03:10:00,51.7,50.0,29.88,NW,322,5.4,24.8,94,0.00,,,0.00,VWS V14.01,2013-11-07 08:10:00,
2013-11-07 03:15:00,51.6,50.0,29.91,North,354,4.3,24.8,94,0.00,,,0.00,VWS V14.01,2013-11-07 08:15:00,
2013-11-07 03:20:00,51.5,50.0,29.91,North,10,1.7,24.8,94,0.00,,,0.00,VWS V14.01,2013-11-07 08:20:00,
2013-11-07 03:25:00,51.6,50.1,29.88,North,11,0.0,24.8,95,0.00,,,0.00,VWS V14.01,2013-11-07 08:25:00,
2013-11-07 03:31:00,51.4,50.0,29.90,North,359,3.0,24.8,95,0.00,,,0.00,VWS V14.01,2013-11-07 08:31:00,
2013-11-07 03:36:00,51.4,50.0,29.90,NNW,330,8.0,24.8,95,0.00,,,0.00,VWS V14.01,2013-11-07 08:36:00,
2013-11-07 03:41:00,51.3,49.9,29.90,North,350,4.1,24.8,95,0.00,,,0.00,VWS V14.01,2013-11-07 08:41:00,
2013-11-07 03:46:00,51.4,50.1,29.90,NNW,333,0.0,24.8,95,0.00,,,0.00,VWS V14.01,2013-11-07 08:46:00,
2013-11-07 03:51:00,51.3,50.0,29.89,NW,318,0.0,8.6,95,0.00,,,0.00,VWS V14.01,2013-11-07 08:51:00,
2013-11-07 03:56:00,51.2,50.0,29.89,NNW,342,3.0,15.3,96,0.00,,,0.00,VWS V14.01,2013-11-07 08:56:00,
2013-11-07 04:01:00,51.2,50.0,29.89,NNW,339,4.5,17.5,96,0.00,,,0.00,VWS V14.01,2013-11-07 09:01:00,
2013-11-07 04:06:00,51.3,50.1,29.90,North,352,0.0,17.5,96,0.00,,,0.00,VWS V14.01,2013-11-07 09:06:00,
2013-11-07 04:11:00,51.2,50.1,29.89,ESE,115,0.0,17.5,96,0.00,,,0.00,VWS V14.01,2013-11-07 09:11:00,
2013-11-07 04:16:00,51.1,50.1,29.89,East,80,2.8,22.9,96,0.00,,,0.00,VWS V14.01,2013-11-07 09:16:00,
2013-11-07 04:21:00,51.1,50.2,29.89,WNW,285,2.8,25.9,97,0.00,,,0.00,VWS V14.01,2013-11-07 09:21:00,
2013-11-07 04:26:00,51.2,50.2,29.89,NNW,329,3.2,25.9,96,0.00,,,0.00,VWS V14.01,2013-11-07 09:26:00,
2013-11-07 04:31:00,51.1,50.1,29.89,WNW,294,0.0,25.9,96,0.00,,,0.00,VWS V14.01,2013-11-07 09:31:00,
2013-11-07 04:36:00,51.2,50.2,29.89,North,7,0.0,25.9,96,0.00,,,0.00,VWS V14.01,2013-11-07 09:36:00,
2013-11-07 04:41:00,51.2,50.2,29.91,NNE,21,3.2,25.9,96,0.00,,,0.00,VWS V14.01,2013-11-07 09:41:00,
2013-11-07 04:46:00,51.2,50.3,29.91,NW,321,3.0,25.9,97,0.00,,,0.00,VWS V14.01,2013-11-07 09:46:00,
2013-11-07 04:51:00,51.1,50.2,29.91,ENE,70,4.7,14.4,97,0.00,,,0.00,VWS V14.01,2013-11-07 09:51:00,
2013-11-07 04:56:00,51.1,50.2,29.91,NNE,15,0.0,17.1,97,0.00,,,0.00,VWS V14.01,2013-11-07 09:56:00,
2013-11-07 05:01:00,51.1,50.2,29.90,ENE,70,0.0,17.1,97,0.00,,,0.00,VWS V14.01,2013-11-07 10:01:00,
2013-11-07 05:06:00,51.0,50.1,29.90,NW,321,0.0,17.1,97,0.00,,,0.00,VWS V14.01,2013-11-07 10:06:00,
2013-11-07 05:11:00,51.1,50.3,29.90,North,359,0.0,17.1,97,0.00,,,0.00,VWS V14.01,2013-11-07 10:11:00,
2013-11-07 05:16:00,51.1,50.3,29.90,North,7,14.2,17.1,97,0.00,,,0.00,VWS V14.01,2013-11-07 10:16:00,
2013-11-07 05:21:00,51.1,50.4,29.89,NE,51,3.0,17.1,97,0.00,,,0.00,VWS V14.01,2013-11-07 10:21:00,
2013-11-07 05:26:00,51.0,50.2,29.89,NE,51,0.0,17.1,97,0.00,,,0.00,VWS V14.01,2013-11-07 10:26:00,
2013-11-07 05:31:00,51.1,50.3,29.89,ENE,62,0.0,17.1,97,0.00,,,0.00,VWS V14.01,2013-11-07 10:31:00,
2013-11-07 05:36:00,51.0,50.2,29.89,ESE,111,3.2,17.1,97,0.00,,,0.00,VWS V14.01,2013-11-07 10:36:00,
2013-11-07 05:41:00,50.9,50.0,29.89,NE,55,11.9,17.1,97,0.00,,,0.00,VWS V14.01,2013-11-07 10:41:00,
2013-11-07 05:47:00,50.6,49.6,29.90,SSE,158,6.9,41.0,96,0.00,,,0.00,VWS V14.01,2013-11-07 10:47:00,
2013-11-07 05:52:00,49.9,48.6,29.91,NNW,336,6.3,26.8,95,0.00,,,0.00,VWS V14.01,2013-11-07 10:52:00,
2013-11-07 05:57:00,48.4,46.9,29.92,East,83,4.7,40.6,94,0.00,,,0.00,VWS V14.01,2013-11-07 10:57:00,
2013-11-07 06:02:00,46.6,44.7,29.92,NNE,22,4.7,43.6,93,0.00,,,0.00,VWS V14.01,2013-11-07 11:02:00,
2013-11-07 06:07:00,45.3,43.9,29.92,ENE,62,13.2,43.6,95,0.00,,,0.00,VWS V14.01,2013-11-07 11:07:00,
2013-11-07 06:12:00,44.6,43.5,29.92,ESE,121,0.0,43.6,96,0.00,,,0.00,VWS V14.01,2013-11-07 11:12:00,
2013-11-07 06:17:00,44.3,43.2,29.92,NNE,25,13.2,43.6,96,0.00,,,0.00,VWS V14.01,2013-11-07 11:17:00,
2013-11-07 06:22:00,44.1,42.9,29.92,NE,55,8.0,43.6,95,0.00,,,0.00,VWS V14.01,2013-11-07 11:22:00,
2013-11-07 06:27:00,43.9,42.6,29.92,North,352,5.8,43.6,95,0.00,,,0.00,VWS V14.01,2013-11-07 11:27:00,
2013-11-07 06:32:00,43.6,42.3,29.92,NNE,24,0.0,43.6,95,0.00,,,0.00,VWS V14.01,2013-11-07 11:32:00,
2013-11-07 06:36:00,43.4,42.2,29.92,NNW,336,5.8,43.6,96,0.00,,,0.00,VWS V14.01,2013-11-07 11:36:00,
2013-11-07 06:41:00,43.2,42.2,29.93,SE,138,11.7,43.6,96,0.00,,,0.00,VWS V14.01,2013-11-07 11:41:00,
2013-11-07 06:46:00,43.1,42.1,29.93,North,359,8.6,43.6,96,0.00,,,0.00,VWS V14.01,2013-11-07 11:46:00,
2013-11-07 06:51:00,43.0,42.0,29.92,NNE,28,8.2,38.6,96,0.00,,,0.00,VWS V14.01,2013-11-07 11:51:00,
2013-11-07 06:56:00,42.8,41.8,29.92,NE,46,9.5,38.6,96,0.00,,,0.00,VWS V14.01,2013-11-07 11:56:00,
2013-11-07 07:01:00,42.8,41.8,29.92,ESE,118,5.4,38.6,96,0.00,,,0.00,VWS V14.01,2013-11-07 12:01:00,
2013-11-07 07:06:00,42.6,41.6,29.92,NNE,25,11.2,38.6,96,0.00,,,0.00,VWS V14.01,2013-11-07 12:06:00,
2013-11-07 07:11:00,42.4,41.3,29.92,East,82,29.5,38.6,96,0.00,,,0.00,VWS V14.01,2013-11-07 12:11:00,
2013-11-07 07:16:00,42.1,41.0,29.92,NNW,347,2.2,38.6,96,0.00,,,0.00,VWS V14.01,2013-11-07 12:16:00,
2013-11-07 07:21:00,42.0,40.9,29.92,East,84,1.7,38.6,96,0.00,,,0.00,VWS V14.01,2013-11-07 12:21:00,
2013-11-07 07:27:00,41.8,40.8,29.92,ESE,105,0.0,38.6,96,0.00,,,0.00,VWS V14.01,2013-11-07 12:27:00,
2013-11-07 07:32:00,41.7,40.7,29.92,ENE,66,17.1,38.6,96,0.00,,,0.00,VWS V14.01,2013-11-07 12:32:00,
2013-11-07 07:37:00,41.6,40.6,29.92,North,359,9.5,39.0,96,0.00,,,0.00,VWS V14.01,2013-11-07 12:37:00,
2013-11-07 07:42:00,41.4,40.5,29.92,East,97,12.1,39.0,96,0.00,,,0.00,VWS V14.01,2013-11-07 12:42:00,
2013-11-07 07:47:00,41.3,40.4,29.92,North,349,9.7,39.0,96,0.00,,,0.00,VWS V14.01,2013-11-07 12:47:00,
2013-11-07 07:52:00,41.2,40.3,29.92,WNW,301,14.0,41.6,96,0.00,,,0.00,VWS V14.01,2013-11-07 12:52:00,
2013-11-07 07:57:00,41.2,40.3,29.92,ENE,60,17.5,41.6,97,0.00,,,0.00,VWS V14.01,2013-11-07 12:57:00,
2013-11-07 08:02:00,41.1,40.3,29.92,ENE,65,18.3,41.6,97,0.00,,,0.00,VWS V14.01,2013-11-07 13:02:00,
2013-11-07 08:07:00,40.9,40.2,29.92,North,1,11.9,43.6,97,0.00,,,0.00,VWS V14.01,2013-11-07 13:07:00,
2013-11-07 08:12:00,40.9,40.3,29.94,NNE,20,7.3,43.6,98,0.00,,,0.00,VWS V14.01,2013-11-07 13:12:00,
2013-11-07 08:17:00,40.9,40.4,29.94,ENE,59,1.3,43.6,98,0.00,,,0.00,VWS V14.01,2013-11-07 13:17:00,
2013-11-07 08:22:00,40.8,40.3,29.94,North,359,8.6,47.2,98,0.00,,,0.00,VWS V14.01,2013-11-07 13:22:00,
2013-11-07 08:27:00,40.7,40.2,29.94,North,359,6.2,67.9,98,0.00,,,0.00,VWS V14.01,2013-11-07 13:27:00,
2013-11-07 08:32:00,40.8,40.3,29.94,North,350,5.6,67.9,98,0.00,,,0.00,VWS V14.01,2013-11-07 13:32:00,
2013-11-07 08:37:00,40.7,40.2,29.95,NE,39,4.1,67.9,98,0.00,,,0.00,VWS V14.01,2013-11-07 13:37:00,
2013-11-07 08:42:00,40.7,40.2,29.94,NNW,335,19.4,67.9,98,0.00,,,0.00,VWS V14.01,2013-11-07 13:42:00,
2013-11-07 08:47:00,40.6,40.1,29.95,ENE,60,15.8,67.9,98,0.00,,,0.00,VWS V14.01,2013-11-07 13:47:00,
2013-11-07 08:52:00,40.3,39.8,29.95,North,359,18.8,30.8,98,0.00,,,0.00,VWS V14.01,2013-11-07 13:52:00,
2013-11-07 08:57:00,40.5,40.0,29.95,North,359,7.5,35.6,98,0.00,,,0.00,VWS V14.01,2013-11-07 13:57:00,
2013-11-07 09:02:00,40.5,40.0,29.95,ENE,70,13.0,35.6,98,0.00,,,0.00,VWS V14.01,2013-11-07 14:02:00,
2013-11-07 09:07:00,40.6,40.1,29.95,ENE,65,25.7,35.6,98,0.00,,,0.00,VWS V14.01,2013-11-07 14:07:00,
2013-11-07 09:12:00,40.3,39.8,29.95,NNE,25,18.3,35.6,98,0.00,,,0.00,VWS V14.01,2013-11-07 14:12:00,
2013-11-07 09:17:00,40.4,39.9,29.95,ENE,72,27.4,35.6,98,0.00,,,0.00,VWS V14.01,2013-11-07 14:17:00,
2013-11-07 09:22:00,40.4,39.9,29.96,North,7,7.1,35.6,98,0.00,,,0.00,VWS V14.01,2013-11-07 14:22:00,
2013-11-07 09:27:00,40.4,39.9,29.97,NW,326,9.3,35.6,98,0.00,,,0.00,VWS V14.01,2013-11-07 14:27:00,
2013-11-07 09:32:00,40.0,39.5,29.97,NNW,340,8.0,35.6,98,0.00,,,0.00,VWS V14.01,2013-11-07 14:32:00,
2013-11-07 09:38:00,39.9,39.4,29.97,WNW,283,5.0,35.6,98,0.00,,,0.00,VWS V14.01,2013-11-07 14:38:00,
2013-11-07 09:43:00,39.9,39.4,29.97,North,359,10.4,35.6,98,0.00,,,0.00,VWS V14.01,2013-11-07 14:43:00,
2013-11-07 09:48:00,39.6,38.9,29.98,ENE,59,18.8,35.6,97,0.00,,,0.00,VWS V14.01,2013-11-07 14:48:00,
2013-11-07 09:53:00,39.2,38.4,29.98,ENE,70,18.8,29.3,97,0.00,,,0.00,VWS V14.01,2013-11-07 14:53:00,
2013-11-07 09:58:00,38.9,38.2,29.98,NE,46,14.4,29.3,97,0.00,,,0.00,VWS V14.01,2013-11-07 14:58:00,
2013-11-07 10:03:00,39.0,38.3,29.98,NE,51,1.3,29.3,97,0.00,,,0.00,VWS V14.01,2013-11-07 15:03:00,
2013-11-07 10:08:00,38.9,38.2,29.98,East,86,20.1,29.3,97,0.00,,,0.00,VWS V14.01,2013-11-07 15:08:00,
2013-11-07 10:13:00,38.8,38.1,29.98,NE,56,5.8,29.3,97,0.00,,,0.00,VWS V14.01,2013-11-07 15:13:00,
2013-11-07 10:18:00,38.9,38.2,29.99,NNE,14,1.9,29.3,97,0.00,,,0.00,VWS V14.01,2013-11-07 15:18:00,
2013-11-07 10:23:00,38.8,38.0,30.00,NNE,25,0.0,29.3,97,0.00,,,0.00,VWS V14.01,2013-11-07 15:23:00,
2013-11-07 10:28:00,38.2,37.1,30.00,NNE,22,6.2,32.4,96,0.00,,,0.00,VWS V14.01,2013-11-07 15:28:00,
2013-11-07 10:33:00,37.6,36.5,30.00,ENE,60,21.1,32.4,96,0.00,,,0.00,VWS V14.01,2013-11-07 15:33:00,
2013-11-07 10:38:00,37.1,36.1,30.00,NE,48,5.8,51.3,96,0.00,,,0.00,VWS V14.01,2013-11-07 15:38:00,
2013-11-07 10:43:00,36.8,35.8,30.00,SSW,201,3.7,51.3,96,0.00,,,0.00,VWS V14.01,2013-11-07 15:43:00,
2013-11-07 10:48:00,36.6,35.6,30.00,East,97,14.4,51.3,96,0.00,,,0.00,VWS V14.01,2013-11-07 15:48:00,
2013-11-07 10:53:00,36.5,35.6,30.00,North,7,11.6,25.0,97,0.00,,,0.00,VWS V14.01,2013-11-07 15:53:00,
2013-11-07 10:58:00,36.5,35.7,30.00,ENE,60,12.9,32.1,97,0.00,,,0.00,VWS V14.01,2013-11-07 15:58:00,
2013-11-07 11:03:00,36.5,35.7,30.00,NE,44,14.7,32.1,97,0.00,,,0.00,VWS V14.01,2013-11-07 16:03:00,
2013-11-07 11:08:00,36.5,35.7,30.00,NNW,336,8.2,42.5,97,0.00,,,0.00,VWS V14.01,2013-11-07 16:08:00,
2013-11-07 11:13:00,36.6,35.9,30.00,WNW,291,0.0,42.5,97,0.00,,,0.00,VWS V14.01,2013-11-07 16:13:00,
2013-11-07 11:18:00,36.7,35.9,30.00,NW,314,2.2,53.7,97,0.00,,,0.00,VWS V14.01,2013-11-07 16:18:00,
2013-11-07 11:23:00,36.6,35.7,30.00,NE,45,14.2,53.7,96,0.00,,,0.00,VWS V14.01,2013-11-07 16:23:00,
2013-11-07 11:28:00,36.7,35.8,30.00,NNE,20,0.0,53.7,97,0.00,,,0.00,VWS V14.01,2013-11-07 16:28:00,
2013-11-07 11:33:00,36.6,35.7,30.00,NNE,31,11.7,53.7,97,0.00,,,0.00,VWS V14.01,2013-11-07 16:33:00,
2013-11-07 11:38:00,36.5,35.6,30.00,East,79,8.6,53.7,96,0.00,,,0.00,VWS V14.01,2013-11-07 16:38:00,
2013-11-07 11:44:00,36.7,35.8,30.00,North,356,6.5,53.7,97,0.00,,,0.00,VWS V14.01,2013-11-07 16:44:00,
2013-11-07 11:49:00,36.7,35.8,30.00,North,359,16.6,18.5,97,0.00,,,0.00,VWS V14.01,2013-11-07 16:49:00,
2013-11-07 11:54:00,36.7,35.8,30.00,NNW,343,23.1,40.5,96,0.00,,,0.00,VWS V14.01,2013-11-07 16:54:00,
2013-11-07 11:59:00,36.8,35.9,30.00,North,11,13.0,41.6,97,0.00,,,0.00,VWS V14.01,2013-11-07 16:59:00,
2013-11-07 12:04:00,36.7,35.9,30.00,NNW,345,1.3,48.5,97,0.00,,,0.00,VWS V14.01,2013-11-07 17:04:00,
2013-11-07 12:09:00,36.9,36.0,30.00,North,7,13.8,48.5,97,0.00,,,0.00,VWS V14.01,2013-11-07 17:09:00,
2013-11-07 12:14:00,37.0,35.9,30.00,East,79,36.5,50.7,96,0.00,,,0.00,VWS V14.01,2013-11-07 17:14:00,
2013-11-07 12:19:00,37.2,35.9,29.99,ENE,60,27.8,50.7,95,0.00,,,0.00,VWS V14.01,2013-11-07 17:19:00,
2013-11-07 12:24:00,37.2,35.5,29.99,North,356,10.8,50.7,94,0.00,,,0.00,VWS V14.01,2013-11-07 17:24:00,
2013-11-07 12:29:00,37.3,35.6,30.00,North,352,23.5,50.7,94,0.00,,,0.00,VWS V14.01,2013-11-07 17:29:00,
2013-11-07 12:34:00,37.2,35.3,29.99,NNE,21,13.4,50.7,93,0.00,,,0.00,VWS V14.01,2013-11-07 17:34:00,
2013-11-07 12:39:00,37.2,35.3,29.99,East,91,24.4,50.7,93,0.00,,,0.00,VWS V14.01,2013-11-07 17:39:00,
2013-11-07 12:44:00,37.0,35.5,29.99,NW,315,14.0,50.7,94,0.00,,,0.00,VWS V14.01,2013-11-07 17:44:00,
2013-11-07 12:49:00,37.5,36.2,29.99,NE,51,14.0,19.8,95,0.00,,,0.00,VWS V14.01,2013-11-07 17:49:00,
2013-11-07 12:54:00,38.1,36.2,29.99,ENE,75,10.6,30.9,93,0.00,,,0.00,VWS V14.01,2013-11-07 17:54:00,
2013-11-07 12:59:00,38.4,35.8,29.99,ENE,65,3.5,33.6,90,0.00,,,0.00,VWS V14.01,2013-11-07 17:59:00,
2013-11-07 13:04:00,38.9,35.7,29.99,North,350,9.1,33.6,88,0.00,,,0.00,VWS V14.01,2013-11-07 18:04:00,
2013-11-07 13:09:00,38.9,35.1,29.99,NNW,343,14.2,38.2,86,0.00,,,0.00,VWS V14.01,2013-11-07 18:09:00,
2013-11-07 13:14:00,38.8,35.3,29.99,NNW,335,8.8,38.2,87,0.00,,,0.00,VWS V14.01,2013-11-07 18:14:00,
2013-11-07 13:19:00,38.8,35.9,29.99,ENE,69,4.7,38.2,89,0.00,,,0.00,VWS V14.01,2013-11-07 18:19:00,
2013-11-07 13:24:00,38.5,35.7,29.99,North,356,9.7,38.2,89,0.00,,,0.00,VWS V14.01,2013-11-07 18:24:00,
2013-11-07 13:29:00,37.9,36.1,30.00,NE,37,0.9,38.2,93,0.00,,,0.00,VWS V14.01,2013-11-07 18:29:00,
2013-11-07 13:34:00,37.5,36.0,30.00,ENE,58,28.3,38.2,94,0.00,,,0.00,VWS V14.01,2013-11-07 18:34:00,
2013-11-07 13:39:00,37.1,35.8,30.00,North,359,10.3,38.2,95,0.00,,,0.00,VWS V14.01,2013-11-07 18:39:00,
2013-11-07 13:44:00,36.8,35.5,30.00,NNE,31,22.9,38.2,95,0.00,,,0.00,VWS V14.01,2013-11-07 18:44:00,
2013-11-07 13:49:00,36.3,35.1,30.00,ESE,111,1.9,19.6,95,0.00,,,0.00,VWS V14.01,2013-11-07 18:49:00,
2013-11-07 13:54:00,36.2,35.1,29.99,SE,129,9.5,27.8,96,0.00,,,0.00,VWS V14.01,2013-11-07 18:54:00,
2013-11-07 13:59:00,36.2,35.3,29.99,East,82,4.7,31.5,96,0.00,,,0.00,VWS V14.01,2013-11-07 18:59:00,
2013-11-07 14:04:00,36.3,35.4,29.99,NNW,346,14.9,36.0,97,0.00,,,0.00,VWS V14.01,2013-11-07 19:04:00,
2013-11-07 14:09:00,36.2,35.3,29.99,NE,45,7.6,36.0,96,0.00,,,0.00,VWS V14.01,2013-11-07 19:09:00,
2013-11-07 14:14:00,35.8,34.9,29.99,East,90,12.5,36.0,97,0.00,,,0.00,VWS V14.01,2013-11-07 19:14:00,
2013-11-07 14:19:00,35.4,34.4,29.99,North,359,8.8,43.6,96,0.00,,,0.00,VWS V14.01,2013-11-07 19:19:00,
2013-11-07 14:24:00,35.5,34.6,29.99,North,359,14.2,43.6,96,0.00,,,0.00,VWS V14.01,2013-11-07 19:24:00,
2013-11-07 14:29:00,35.5,34.6,29.99,NNE,28,12.3,43.6,96,0.00,,,0.00,VWS V14.01,2013-11-07 19:29:00,
2013-11-07 14:34:00,35.4,34.5,29.99,North,354,11.0,46.6,96,0.00,,,0.00,VWS V14.01,2013-11-07 19:34:00,
2013-11-07 14:39:00,35.7,34.9,29.99,East,79,19.0,46.6,97,0.00,,,0.00,VWS V14.01,2013-11-07 19:39:00,
2013-11-07 14:44:00,35.9,35.1,29.99,NW,322,11.0,46.6,97,0.00,,,0.00,VWS V14.01,2013-11-07 19:44:00,
2013-11-07 14:49:00,36.1,35.2,29.99,NNE,22,3.4,24.0,97,0.00,,,0.00,VWS V14.01,2013-11-07 19:49:00,
2013-11-07 14:54:00,35.4,34.0,30.00,North,357,13.0,49.6,95,0.00,,,0.00,VWS V14.01,2013-11-07 19:54:00,
2013-11-07 15:00:00,35.0,33.4,29.99,NNE,30,5.4,49.6,94,0.00,,,0.00,VWS V14.01,2013-11-07 20:00:00,
2013-11-07 15:05:00,34.9,33.2,30.00,ENE,75,26.7,49.6,93,0.00,,,0.00,VWS V14.01,2013-11-07 20:05:00,
2013-11-07 15:10:00,35.2,32.9,29.99,NW,319,14.9,55.7,91,0.00,,,0.00,VWS V14.01,2013-11-07 20:10:00,
2013-11-07 15:15:00,35.0,32.6,29.99,SSE,153,17.5,55.7,91,0.00,,,0.00,VWS V14.01,2013-11-07 20:15:00,
2013-11-07 15:20:00,35.3,32.8,29.99,ENE,76,3.9,55.7,91,0.00,,,0.00,VWS V14.01,2013-11-07 20:20:00,
2013-11-07 15:25:00,35.4,32.5,29.99,NNW,338,0.0,55.7,89,0.00,,,0.00,VWS V14.01,2013-11-07 20:25:00,
2013-11-07 15:30:00,35.4,32.5,29.99,NNE,18,7.6,55.7,89,0.00,,,0.00,VWS V14.01,2013-11-07 20:30:00,
2013-11-07 15:35:00,35.6,32.8,30.00,SSE,148,1.3,55.7,90,0.00,,,0.00,VWS V14.01,2013-11-07 20:35:00,
2013-11-07 15:40:00,35.6,32.6,30.00,North,349,19.4,55.7,89,0.00,,,0.00,VWS V14.01,2013-11-07 20:40:00,
2013-11-07 15:45:00,35.7,32.8,30.00,North,350,7.6,55.7,89,0.00,,,0.00,VWS V14.01,2013-11-07 20:45:00,
2013-11-07 15:50:00,35.7,32.7,30.00,North,4,15.3,27.2,89,0.00,,,0.00,VWS V14.01,2013-11-07 20:50:00,
2013-11-07 15:55:00,35.7,32.5,29.97,NNW,339,17.9,27.2,88,0.00,,,0.00,VWS V14.01,2013-11-07 20:55:00,
2013-11-07 16:00:00,35.7,32.6,30.00,NNW,347,5.8,32.4,88,0.00,,,0.00,VWS V14.01,2013-11-07 21:00:00,
2013-11-07 16:05:00,35.7,32.5,30.00,NNW,330,9.9,32.4,88,0.00,,,0.00,VWS V14.01,2013-11-07 21:05:00,
2013-11-07 16:10:00,35.5,32.1,29.97,North,359,28.5,32.4,87,0.00,,,0.00,VWS V14.01,2013-11-07 21:10:00,
2013-11-07 16:15:00,35.4,31.6,30.00,North,349,12.9,37.5,86,0.00,,,0.00,VWS V14.01,2013-11-07 21:15:00,
2013-11-07 16:20:00,35.3,31.1,30.00,ESE,115,30.8,37.5,84,0.00,,,0.00,VWS V14.01,2013-11-07 21:20:00,
2013-11-07 16:25:00,35.2,30.6,29.97,North,359,14.7,37.5,83,0.00,,,0.00,VWS V14.01,2013-11-07 21:25:00,
2013-11-07 16:30:00,35.2,30.6,30.00,NNE,17,7.8,37.5,83,0.00,,,0.00,VWS V14.01,2013-11-07 21:30:00,
2013-11-07 16:35:00,35.3,30.5,30.00,North,6,15.3,37.5,82,0.00,,,0.00,VWS V14.01,2013-11-07 21:35:00,
2013-11-07 16:40:00,35.2,30.4,29.98,NNW,347,3.4,37.5,82,0.00,,,0.00,VWS V14.01,2013-11-07 21:40:00,
2013-11-07 16:45:00,35.1,30.3,30.00,NNE,24,13.8,39.1,82,0.00,,,0.00,VWS V14.01,2013-11-07 21:45:00,
2013-11-07 16:50:00,35.2,30.6,30.00,NNW,339,16.0,31.9,83,0.00,,,0.00,VWS V14.01,2013-11-07 21:50:00,
2013-11-07 16:55:00,35.0,30.2,30.00,North,359,12.7,31.9,83,0.00,,,0.00,VWS V14.01,2013-11-07 21:55:00,
2013-11-07 17:00:00,35.0,30.3,30.00,North,10,25.5,31.9,83,0.00,,,0.00,VWS V14.01,2013-11-07 22:00:00,
2013-11-07 17:05:00,35.0,30.5,30.00,East,101,22.9,31.9,83,0.00,,,0.00,VWS V14.01,2013-11-07 22:05:00,
2013-11-07 17:11:00,34.8,30.3,30.01,ESE,107,12.9,31.9,83,0.00,,,0.00,VWS V14.01,2013-11-07 22:11:00,
2013-11-07 17:16:00,34.9,30.5,30.01,NNE,31,8.6,31.9,84,0.00,,,0.00,VWS V14.01,2013-11-07 22:16:00,
2013-11-07 17:21:00,34.7,30.3,30.01,NNW,347,13.0,31.9,84,0.00,,,0.00,VWS V14.01,2013-11-07 22:21:00,
2013-11-07 17:26:00,34.6,29.9,30.01,NNE,15,13.4,58.5,83,0.00,,,0.00,VWS V14.01,2013-11-07 22:26:00,
2013-11-07 17:31:00,34.7,30.2,30.02,NNW,338,22.7,58.5,83,0.00,,,0.00,VWS V14.01,2013-11-07 22:31:00,
2013-11-07 17:36:00,34.7,30.3,30.02,NE,34,14.4,58.5,84,0.00,,,0.00,VWS V14.01,2013-11-07 22:36:00,
2013-11-07 17:41:00,34.5,30.1,30.02,North,4,10.1,58.5,84,0.00,,,0.00,VWS V14.01,2013-11-07 22:41:00,
2013-11-07 17:46:00,34.4,29.9,30.03,WNW,292,4.5,58.5,83,0.00,,,0.00,VWS V14.01,2013-11-07 22:46:00,
2013-11-07 17:51:00,34.3,29.3,30.03,NNE,24,21.8,53.7,82,0.00,,,0.00,VWS V14.01,2013-11-07 22:51:00,
2013-11-07 17:56:00,33.9,28.8,30.03,North,359,5.6,53.7,81,0.00,,,0.00,VWS V14.01,2013-11-07 22:56:00,
2013-11-07 18:01:00,33.7,27.9,30.03,NE,48,19.9,53.7,79,0.00,,,0.00,VWS V14.01,2013-11-07 23:01:00,
2013-11-07 18:06:00,33.5,27.7,30.04,ENE,60,5.6,53.7,79,0.00,,,0.00,VWS V14.01,2013-11-07 23:06:00,
2013-11-07 18:11:00,33.4,27.5,30.04,NNE,31,20.5,53.7,79,0.00,,,0.00,VWS V14.01,2013-11-07 23:11:00,
2013-11-07 18:16:00,33.1,26.9,30.04,East,82,18.8,53.7,78,0.00,,,0.00,VWS V14.01,2013-11-07 23:16:00,
2013-11-07 18:21:00,32.8,26.5,30.05,ENE,58,23.1,53.7,78,0.00,,,0.00,VWS V14.01,2013-11-07 23:21:00,
2013-11-07 18:26:00,33.0,26.9,30.05,NE,53,31.1,53.7,78,0.00,,,0.00,VWS V14.01,2013-11-07 23:26:00,
2013-11-07 18:31:00,32.8,26.3,30.06,NNW,347,6.9,53.7,77,0.00,,,0.00,VWS V14.01,2013-11-07 23:31:00,
2013-11-07 18:36:00,32.6,25.7,30.06,East,82,7.3,53.7,76,0.00,,,0.00,VWS V14.01,2013-11-07 23:36:00,
2013-11-07 18:41:00,32.3,24.8,30.06,North,4,20.3,63.8,73,0.00,,,0.00,VWS V14.01,2013-11-07 23:41:00,
2013-11-07 18:46:00,32.2,24.0,30.07,WNW,300,13.0,63.8,72,0.00,,,0.00,VWS V14.01,2013-11-07 23:46:00,
2013-11-07 18:51:00,32.1,23.8,30.07,NNW,345,12.7,31.1,71,0.00,,,0.00,VWS V14.01,2013-11-07 23:51:00,
2013-11-07 18:56:00,32.0,23.9,30.07,ENE,70,11.6,36.5,72,0.00,,,0.00,VWS V14.01,2013-11-07 23:56:00,
2013-11-07 19:01:00,31.9,24.0,30.07,SE,139,18.3,41.0,72,0.00,,,0.00,VWS V14.01,2013-11-08 00:01:00,
2013-11-07 19:06:00,32.0,24.3,30.07,NE,34,5.8,41.0,73,0.00,,,0.00,VWS V14.01,2013-11-08 00:06:00,
2013-11-07 19:11:00,31.7,23.6,30.07,ENE,62,12.5,41.0,72,0.00,,,0.00,VWS V14.01,2013-11-08 00:11:00,
2013-11-07 19:16:00,31.8,23.0,30.07,North,357,16.4,41.0,70,0.00,,,0.00,VWS V14.01,2013-11-08 00:16:00,
2013-11-07 19:22:00,31.8,23.6,30.07,NNE,28,13.0,41.0,72,0.00,,,0.00,VWS V14.01,2013-11-08 00:22:00,
2013-11-07 19:27:00,31.7,23.6,30.07,ENE,65,23.9,41.0,72,0.00,,,0.00,VWS V14.01,2013-11-08 00:27:00,
2013-11-07 19:32:00,31.7,23.6,30.08,NNE,17,9.5,41.0,72,0.00,,,0.00,VWS V14.01,2013-11-08 00:32:00,
2013-11-07 19:37:00,31.6,23.4,30.08,NE,51,12.9,42.9,71,0.00,,,0.00,VWS V14.01,2013-11-08 00:37:00,
2013-11-07 19:42:00,31.6,23.5,30.08,NNE,21,11.9,42.9,72,0.00,,,0.00,VWS V14.01,2013-11-08 00:42:00,
2013-11-07 19:47:00,31.6,23.6,30.08,NNE,18,4.5,42.9,72,0.00,,,0.00,VWS V14.01,2013-11-08 00:47:00,
2013-11-07 19:52:00,31.6,23.8,30.08,North,359,15.3,27.8,72,0.00,,,0.00,VWS V14.01,2013-11-08 00:52:00,
2013-11-07 19:57:00,31.6,23.8,30.08,North,353,0.0,30.8,73,0.00,,,0.00,VWS V14.01,2013-11-08 00:57:00,
2013-11-07 20:02:00,31.6,24.0,30.08,NNE,21,14.7,30.8,73,0.00,,,0.00,VWS V14.01,2013-11-08 01:02:00,
2013-11-07 20:07:00,31.5,24.0,30.08,North,1,17.0,30.8,73,0.00,,,0.00,VWS V14.01,2013-11-08 01:07:00,
2013-11-07 20:12:00,31.5,24.1,30.08,NNW,329,4.1,30.8,74,0.00,,,0.00,VWS V14.01,2013-11-08 01:12:00,
2013-11-07 20:17:00,31.5,24.2,30.08,NNW,343,10.4,33.6,74,0.00,,,0.00,VWS V14.01,2013-11-08 01:17:00,
2013-11-07 20:22:00,31.5,24.4,30.07,NNE,31,6.5,34.7,75,0.00,,,0.00,VWS V14.01,2013-11-08 01:22:00,
2013-11-07 20:27:00,31.5,24.5,30.08,SSE,162,15.5,34.7,75,0.00,,,0.00,VWS V14.01,2013-11-08 01:27:00,
2013-11-07 20:32:00,31.5,24.7,30.07,NE,38,13.8,34.7,76,0.00,,,0.00,VWS V14.01,2013-11-08 01:32:00,
2013-11-07 20:37:00,31.6,24.8,30.07,ESE,103,1.9,34.7,76,0.00,,,0.00,VWS V14.01,2013-11-08 01:37:00,
2013-11-07 20:42:00,31.5,24.8,30.07,ESE,103,4.8,34.7,76,0.00,,,0.00,VWS V14.01,2013-11-08 01:42:00,
2013-11-07 20:47:00,31.4,24.8,30.07,North,352,5.8,34.7,76,0.00,,,0.00,VWS V14.01,2013-11-08 01:47:00,
2013-11-07 20:52:00,31.5,24.8,30.07,NNE,13,11.4,24.8,76,0.00,,,0.00,VWS V14.01,2013-11-08 01:52:00,
2013-11-07 20:57:00,31.5,25.1,30.07,NE,38,0.0,24.8,77,0.00,,,0.00,VWS V14.01,2013-11-08 01:57:00,
2013-11-07 21:02:00,31.5,24.9,30.07,North,1,9.5,24.8,76,0.00,,,0.00,VWS V14.01,2013-11-08 02:02:00,
2013-11-07 21:07:00,31.5,24.8,30.07,North,356,4.7,24.8,76,0.00,,,0.00,VWS V14.01,2013-11-08 02:07:00,
2013-11-07 21:13:00,31.5,24.7,30.07,North,352,2.6,24.8,76,0.00,,,0.00,VWS V14.01,2013-11-08 02:13:00,
2013-11-07 21:18:00,31.6,24.9,30.06,North,353,2.4,24.8,76,0.00,,,0.00,VWS V14.01,2013-11-08 02:18:00,
2013-11-07 21:23:00,31.4,24.9,30.06,NE,34,12.1,24.8,76,0.00,,,0.00,VWS V14.01,2013-11-08 02:23:00,
2013-11-07 21:28:00,31.4,24.9,30.06,WNW,287,2.8,24.8,77,0.00,,,0.00,VWS V14.01,2013-11-08 02:28:00,
2013-11-07 21:33:00,31.4,24.8,30.06,North,6,12.7,24.8,76,0.00,,,0.00,VWS V14.01,2013-11-08 02:33:00,
2013-11-07 21:38:00,31.5,25.1,30.06,NE,42,11.6,32.4,77,0.00,,,0.00,VWS V14.01,2013-11-08 02:38:00,
2013-11-07 21:43:00,31.5,25.0,30.06,NW,316,10.1,32.4,76,0.00,,,0.00,VWS V14.01,2013-11-08 02:43:00,
2013-11-07 21:48:00,31.4,25.2,30.06,ENE,72,5.4,32.4,77,0.00,,,0.00,VWS V14.01,2013-11-08 02:48:00,
2013-11-07 21:53:00,31.3,25.1,30.06,North,11,11.6,32.1,78,0.00,,,0.00,VWS V14.01,2013-11-08 02:53:00,
2013-11-07 21:58:00,31.3,25.2,30.06,NNE,14,0.0,32.1,78,0.00,,,0.00,VWS V14.01,2013-11-08 02:58:00,
2013-11-07 22:03:00,31.2,25.1,30.06,ENE,68,9.5,32.1,78,0.00,,,0.00,VWS V14.01,2013-11-08 03:03:00,
2013-11-07 22:09:00,31.2,25.1,30.06,NNW,330,9.1,32.1,78,0.00,,,0.00,VWS V14.01,2013-11-08 03:09:00,
2013-11-07 22:14:00,31.3,25.2,30.05,NW,318,2.8,32.1,78,0.00,,,0.00,VWS V14.01,2013-11-08 03:14:00,
2013-11-07 22:19:00,31.3,25.2,30.05,NNW,347,13.0,32.1,78,0.00,,,0.00,VWS V14.01,2013-11-08 03:19:00,
2013-11-07 22:24:00,31.2,25.0,30.05,NNW,347,13.8,36.7,78,0.00,,,0.00,VWS V14.01,2013-11-08 03:24:00,
2013-11-07 22:29:00,31.3,25.4,30.05,East,96,11.4,36.7,79,0.00,,,0.00,VWS V14.01,2013-11-08 03:29:00,
2013-11-07 22:34:00,31.3,25.3,30.05,NNW,339,7.8,36.7,78,0.00,,,0.00,VWS V14.01,2013-11-08 03:34:00,
2013-11-07 22:39:00,31.4,25.5,30.05,WNW,292,13.6,36.7,78,0.00,,,0.00,VWS V14.01,2013-11-08 03:39:00,
2013-11-07 22:44:00,31.2,25.3,30.05,WNW,283,1.3,36.7,79,0.00,,,0.00,VWS V14.01,2013-11-08 03:44:00,
2013-11-07 22:49:00,31.2,25.4,30.04,North,10,10.1,12.1,79,0.00,,,0.00,VWS V14.01,2013-11-08 03:49:00,
2013-11-07 22:54:00,31.1,25.3,30.04,North,354,7.6,25.9,79,0.00,,,0.00,VWS V14.01,2013-11-08 03:54:00,
2013-11-07 22:59:00,31.2,25.5,30.04,WNW,300,15.1,25.9,79,0.00,,,0.00,VWS V14.01,2013-11-08 03:59:00,
2013-11-07 23:04:00,31.3,25.6,30.04,NW,309,17.9,33.7,79,0.00,,,0.00,VWS V14.01,2013-11-08 04:04:00,
2013-11-07 23:09:00,31.3,25.6,30.04,North,359,13.2,33.7,79,0.00,,,0.00,VWS V14.01,2013-11-08 04:09:00,
2013-11-07 23:14:00,31.2,25.5,30.04,WNW,287,3.2,33.7,79,0.00,,,0.00,VWS V14.01,2013-11-08 04:14:00,
2013-11-07 23:19:00,31.3,25.6,30.04,North,1,17.3,33.7,79,0.00,,,0.00,VWS V14.01,2013-11-08 04:19:00,
2013-11-07 23:24:00,31.3,25.6,30.04,NNE,14,9.7,33.7,79,0.00,,,0.00,VWS V14.01,2013-11-08 04:24:00,
2013-11-07 23:29:00,31.2,25.6,30.04,NNW,329,15.1,36.7,80,0.00,,,0.00,VWS V14.01,2013-11-08 04:29:00,
2013-11-07 23:35:00,31.3,25.7,30.04,North,11,13.2,36.7,79,0.00,,,0.00,VWS V14.01,2013-11-08 04:35:00,
2013-11-07 23:40:00,31.3,25.7,30.04,North,359,14.4,36.7,80,0.00,,,0.00,VWS V14.01,2013-11-08 04:40:00,
2013-11-07 23:45:00,31.2,25.7,30.04,ENE,76,10.3,36.7,80,0.00,,,0.00,VWS V14.01,2013-11-08 04:45:00,
2013-11-07 23:59:00,31.1,25.8,30.04,NNE,21,7.5,37.3,80,0.00,,,0.00,VWS V14.01,2013-11-08 04:59:00,